createdAt,value
2023-04-15T00:01:00.811Z,100301.63
2023-04-15T00:03:28.901Z,100301.13
2023-04-15T00:05:55.832Z,100298.97
2023-04-15T00:08:22.586Z,100295.97
2023-04-15T00:10:49.624Z,100298.41
2023-04-15T00:13:16.757Z,100290.66
2023-04-15T00:15:43.621Z,100295.69
2023-04-15T00:18:10.524Z,100296.13
2023-04-15T00:20:37.799Z,100299.84
2023-04-15T00:23:04.650Z,100290.97
2023-04-15T00:25:31.841Z,100288.41
2023-04-15T00:27:58.574Z,100291.19
2023-04-15T00:30:25.898Z,100294.81
2023-04-15T00:32:53.887Z,100294.78
2023-04-15T00:35:21.027Z,100289.88
2023-04-15T00:37:47.829Z,100289.66
2023-04-15T00:40:17.987Z,100291.38
2023-04-15T00:42:45.854Z,100292.44
2023-04-15T00:45:13.464Z,100293.41
2023-04-15T00:47:42.448Z,100300.81
2023-04-15T00:50:09.832Z,100298.69
2023-04-15T00:52:36.631Z,100295.78
2023-04-15T00:55:05.108Z,100290.00
2023-04-15T00:57:32.082Z,100295.53
2023-04-15T00:59:58.868Z,100301.28
2023-04-15T01:02:25.875Z,100298.63
2023-04-15T01:04:52.688Z,100294.78
2023-04-15T01:07:19.662Z,100293.19
2023-04-15T01:09:46.579Z,100296.41
2023-04-15T01:12:15.624Z,100300.22
2023-04-15T01:14:42.580Z,100299.03
2023-04-15T01:17:09.455Z,100297.38
2023-04-15T01:19:40.005Z,100296.13
2023-04-15T01:22:06.738Z,100295.00
2023-04-15T01:24:34.402Z,100291.94
2023-04-15T01:27:01.487Z,100296.44
2023-04-15T01:29:28.288Z,100289.09
2023-04-15T01:31:56.221Z,100287.84
2023-04-15T01:34:23.271Z,100296.13
2023-04-15T01:36:49.961Z,100291.78
2023-04-15T01:39:16.697Z,100287.50
2023-04-15T01:41:43.353Z,100299.50
2023-04-15T01:44:10.280Z,100291.75
2023-04-15T01:46:37.239Z,100285.50
2023-04-15T01:49:04.036Z,100300.00
2023-04-15T01:51:30.730Z,100296.09
2023-04-15T01:53:57.447Z,100296.78
2023-04-15T01:56:24.733Z,100292.59
2023-04-15T01:58:52.033Z,100290.31
2023-04-15T02:01:20.118Z,100286.03
2023-04-15T02:03:48.134Z,100291.72
2023-04-15T02:06:15.220Z,100292.22
2023-04-15T02:08:41.908Z,100300.44
2023-04-15T02:11:08.693Z,100288.31
2023-04-15T02:13:35.448Z,100298.38
2023-04-15T02:16:03.719Z,100295.47
2023-04-15T02:18:30.749Z,100292.59
2023-04-15T02:20:58.963Z,100296.03
2023-04-15T02:23:26.009Z,100301.41
2023-04-15T02:25:53.465Z,100300.88
2023-04-15T02:28:21.990Z,100300.84
2023-04-15T02:30:53.107Z,100303.59
2023-04-15T02:33:20.382Z,100306.25
2023-04-15T02:35:47.539Z,100303.41
2023-04-15T02:38:16.934Z,100304.34
2023-04-15T02:40:43.715Z,100310.59
2023-04-15T02:43:10.865Z,100307.50
2023-04-15T02:45:37.587Z,100307.22
2023-04-15T02:48:06.701Z,100316.50
2023-04-15T02:50:33.555Z,100313.25
2023-04-15T02:53:01.759Z,100312.91
2023-04-15T02:55:29.097Z,100314.19
2023-04-15T02:57:56.053Z,100324.88
2023-04-15T03:00:25.514Z,100326.59
2023-04-15T03:02:56.857Z,100327.94
2023-04-15T03:05:25.596Z,100330.09
2023-04-15T03:07:52.515Z,100335.34
2023-04-15T03:10:19.331Z,100340.63
2023-04-15T03:12:46.324Z,100341.97
2023-04-15T03:15:13.076Z,100343.72
2023-04-15T03:17:39.822Z,100337.75
2023-04-15T03:20:07.390Z,100338.59
2023-04-15T03:22:34.320Z,100340.84
2023-04-15T03:25:01.154Z,100347.59
2023-04-15T03:27:27.830Z,100344.84
2023-04-15T03:29:54.507Z,100342.94
2023-04-15T03:32:21.218Z,100342.25
2023-04-15T03:34:47.965Z,100343.53
2023-04-15T03:37:14.660Z,100342.09
2023-04-15T03:39:41.952Z,100342.69
2023-04-15T03:42:08.683Z,100348.44
2023-04-15T03:44:35.415Z,100350.88
2023-04-15T03:47:02.116Z,100350.53
2023-04-15T03:49:28.925Z,100353.53
2023-04-15T03:51:56.015Z,100358.84
2023-04-15T03:54:22.960Z,100359.09
2023-04-15T03:56:49.677Z,100361.97
2023-04-15T03:59:16.724Z,100365.00
2023-04-15T04:01:43.660Z,100366.47
2023-04-15T04:04:11.068Z,100366.38
2023-04-15T04:06:37.965Z,100371.19
2023-04-15T04:09:04.672Z,100383.00
2023-04-15T04:11:31.932Z,100378.97
2023-04-15T04:13:58.847Z,100376.13
2023-04-15T04:16:25.633Z,100367.72
2023-04-15T04:18:52.345Z,100386.63
2023-04-15T04:21:19.063Z,100379.53
2023-04-15T04:23:45.735Z,100378.47
2023-04-15T04:26:12.444Z,100383.03
2023-04-15T04:28:40.731Z,100384.91
2023-04-15T04:31:08.001Z,100384.13
2023-04-15T04:33:34.781Z,100386.28
2023-04-15T04:36:01.638Z,100393.22
2023-04-15T04:38:28.285Z,100404.66
2023-04-15T04:40:54.951Z,100400.03
2023-04-15T04:43:22.158Z,100394.56
2023-04-15T04:45:48.990Z,100396.53
2023-04-15T04:48:15.742Z,100402.78
2023-04-15T04:50:42.556Z,100413.63
2023-04-15T04:53:09.194Z,100407.38
2023-04-15T04:55:38.990Z,100408.16
2023-04-15T04:58:05.627Z,100414.88
2023-04-15T05:00:32.354Z,100410.97
2023-04-15T05:03:01.985Z,100417.97
2023-04-15T05:05:28.815Z,100424.06
2023-04-15T05:07:55.802Z,100423.75
2023-04-15T05:10:22.564Z,100422.84
2023-04-15T05:12:55.224Z,100425.84
2023-04-15T05:15:22.011Z,100423.41
2023-04-15T05:17:48.670Z,100427.69
2023-04-15T05:20:15.879Z,100431.63
2023-04-15T05:22:42.580Z,100430.78
2023-04-15T05:25:10.028Z,100442.53
2023-04-15T05:27:37.005Z,100439.72
2023-04-15T05:30:03.876Z,100441.00
2023-04-15T05:32:30.737Z,100441.75
2023-04-15T05:34:57.482Z,100446.44
2023-04-15T05:37:24.161Z,100452.25
2023-04-15T05:39:50.789Z,100451.16
2023-04-15T05:42:17.547Z,100460.88
2023-04-15T05:44:44.261Z,100458.47
2023-04-15T05:47:11.165Z,100462.22
2023-04-15T05:49:37.892Z,100465.81
2023-04-15T05:52:05.238Z,100472.44
2023-04-15T05:54:31.974Z,100472.56
2023-04-15T05:56:59.255Z,100475.28
2023-04-15T05:59:26.369Z,100481.16
2023-04-15T06:01:53.274Z,100485.53
2023-04-15T06:04:20.245Z,100484.88
2023-04-15T06:06:47.438Z,100491.03
2023-04-15T06:09:14.273Z,100497.91
2023-04-15T06:11:41.546Z,100495.03
2023-04-15T06:14:08.481Z,100504.41
2023-04-15T06:16:36.837Z,100508.41
2023-04-15T06:19:04.084Z,100504.38
2023-04-15T06:21:31.704Z,100509.78
2023-04-15T06:24:01.644Z,100510.34
2023-04-15T06:26:28.578Z,100517.75
2023-04-15T06:28:55.880Z,100520.75
2023-04-15T06:31:22.886Z,100518.13
2023-04-15T06:33:49.782Z,100530.53
2023-04-15T06:36:16.574Z,100536.94
2023-04-15T06:38:43.269Z,100529.06
2023-04-15T06:41:10.014Z,100531.88
2023-04-15T06:43:36.733Z,100541.75
2023-04-15T06:46:03.706Z,100541.28
2023-04-15T06:48:30.507Z,100545.56
2023-04-15T06:50:58.489Z,100547.84
2023-04-15T06:53:28.451Z,100549.97
2023-04-15T06:55:55.260Z,100552.78
2023-04-15T06:58:22.357Z,100556.13
2023-04-15T07:00:49.433Z,100559.44
2023-04-15T07:03:16.449Z,100564.66
2023-04-15T07:05:43.756Z,100560.75
2023-04-15T07:08:10.584Z,100564.19
2023-04-15T07:10:37.380Z,100562.47
2023-04-15T07:13:05.188Z,100560.09
2023-04-15T07:15:31.872Z,100574.69
2023-04-15T07:17:58.679Z,100576.50
2023-04-15T07:20:25.820Z,100573.38
2023-04-15T07:22:53.416Z,100584.63
2023-04-15T07:25:20.254Z,100587.44
2023-04-15T07:27:47.606Z,100591.72
2023-04-15T07:30:16.929Z,100586.66
2023-04-15T07:32:43.791Z,100599.56
2023-04-15T07:35:10.888Z,100586.59
2023-04-15T07:37:37.718Z,100593.22
2023-04-15T07:40:05.493Z,100596.63
2023-04-15T07:42:32.175Z,100601.44
2023-04-15T07:44:58.844Z,100602.75
2023-04-15T07:47:25.967Z,100599.88
2023-04-15T07:49:53.353Z,100596.09
2023-04-15T07:52:20.041Z,100608.22
2023-04-15T07:54:47.092Z,100610.56
2023-04-15T07:57:20.102Z,100603.09
2023-04-15T07:59:46.899Z,100609.31
2023-04-15T08:02:13.764Z,100610.56
2023-04-15T08:04:40.794Z,100613.22
2023-04-15T08:07:07.879Z,100614.97
2023-04-15T08:09:35.021Z,100615.25
2023-04-15T08:12:01.992Z,100622.81
2023-04-15T08:14:29.475Z,100631.59
2023-04-15T08:16:56.168Z,100630.06
2023-04-15T08:19:23.199Z,100627.66
2023-04-15T08:21:49.945Z,100629.31
2023-04-15T08:24:16.652Z,100628.25
2023-04-15T08:26:43.432Z,100636.56
2023-04-15T08:29:10.115Z,100631.81
2023-04-15T08:31:36.923Z,100640.41
2023-04-15T08:34:03.949Z,100635.38
2023-04-15T08:36:31.043Z,100645.78
2023-04-15T08:38:57.889Z,100641.06
2023-04-15T08:41:26.351Z,100641.81
2023-04-15T08:44:02.782Z,100645.66
2023-04-15T08:46:30.992Z,100643.59
2023-04-15T08:48:58.570Z,100649.50
2023-04-15T08:51:25.906Z,100652.28
2023-04-15T08:53:52.853Z,100652.63
2023-04-15T08:56:20.464Z,100652.75
2023-04-15T08:58:48.022Z,100660.41
2023-04-15T09:01:14.930Z,100660.16
2023-04-15T09:03:49.536Z,100652.38
2023-04-15T09:06:22.342Z,100656.16
2023-04-15T09:08:50.679Z,100663.13
2023-04-15T09:11:20.776Z,100659.78
2023-04-15T09:13:47.523Z,100664.19
2023-04-15T09:16:14.575Z,100667.31
2023-04-15T09:18:41.394Z,100668.16
2023-04-15T09:21:13.429Z,100672.16
2023-04-15T09:23:42.146Z,100672.53
2023-04-15T09:26:08.835Z,100679.28
2023-04-15T09:28:42.697Z,100676.94
2023-04-15T09:31:10.815Z,100690.88
2023-04-15T09:33:55.066Z,100688.22
2023-04-15T09:36:21.958Z,100688.03
2023-04-15T09:38:56.958Z,100694.25
2023-04-15T09:41:25.104Z,100707.59
2023-04-15T09:43:51.901Z,100698.63
2023-04-15T09:46:18.937Z,100712.81
2023-04-15T09:48:45.787Z,100708.00
2023-04-15T09:51:12.559Z,100709.94
2023-04-15T09:53:39.257Z,100715.13
2023-04-15T09:56:08.172Z,100718.34
2023-04-15T09:58:35.885Z,100724.03
2023-04-15T10:01:05.161Z,100719.16
2023-04-15T10:03:36.141Z,100729.16
2023-04-15T10:06:04.142Z,100726.06
2023-04-15T10:08:33.337Z,100730.50
2023-04-15T10:11:02.188Z,100724.03
2023-04-15T10:13:33.119Z,100729.28
2023-04-15T10:16:01.762Z,100744.22
2023-04-15T10:18:29.296Z,100740.03
2023-04-15T10:20:56.214Z,100745.81
2023-04-15T10:23:24.636Z,100737.44
2023-04-15T10:25:54.178Z,100740.97
2023-04-15T10:28:23.118Z,100736.25
2023-04-15T10:30:50.347Z,100739.66
2023-04-15T10:33:24.638Z,100741.97
2023-04-15T10:35:52.879Z,100743.78
2023-04-15T10:38:44.512Z,100747.44
2023-04-15T10:41:21.470Z,100748.81
2023-04-15T10:43:53.916Z,100752.25
2023-04-15T10:46:40.259Z,100748.94
2023-04-15T10:49:18.139Z,100761.78
2023-04-15T10:51:46.719Z,100758.41
2023-04-15T10:54:26.603Z,100763.13
2023-04-15T10:57:09.322Z,100759.88
2023-04-15T10:59:59.317Z,100761.84
2023-04-15T11:02:42.553Z,100768.97
2023-04-15T11:05:10.823Z,100760.31
2023-04-15T11:07:44.529Z,100764.97
2023-04-15T11:10:14.354Z,100770.28
2023-04-15T11:12:41.465Z,100769.22
2023-04-15T11:15:38.080Z,100777.63
2023-04-15T11:18:15.120Z,100769.16
2023-04-15T11:20:45.321Z,100780.41
2023-04-15T11:23:14.591Z,100780.66
2023-04-15T11:25:43.532Z,100778.72
2023-04-15T11:28:12.230Z,100788.31
2023-04-15T11:30:40.150Z,100791.75
2023-04-15T11:33:12.647Z,100793.50
2023-04-15T11:35:41.543Z,100790.16
2023-04-15T11:38:14.063Z,100790.78
2023-04-15T11:40:44.565Z,100802.81
2023-04-15T11:43:20.481Z,100800.16
2023-04-15T11:45:53.411Z,100802.25
2023-04-15T11:48:21.967Z,100811.81
2023-04-15T11:50:57.000Z,100801.50
2023-04-15T11:53:24.880Z,100805.34
2023-04-15T11:55:53.259Z,100805.41
2023-04-15T11:58:24.537Z,100800.28
2023-04-15T12:00:54.257Z,100817.06
2023-04-15T12:03:25.307Z,100818.72
2023-04-15T12:06:07.765Z,100825.56
2023-04-15T12:08:55.988Z,100826.41
2023-04-15T12:11:34.999Z,100826.75
2023-04-15T12:14:12.885Z,100829.69
2023-04-15T12:16:48.789Z,100833.78
2023-04-15T12:19:35.285Z,100834.22
2023-04-15T12:22:04.402Z,100835.47
2023-04-15T12:24:37.909Z,100843.94
2023-04-15T12:27:05.879Z,100845.13
2023-04-15T12:29:33.218Z,100848.59
2023-04-15T12:32:07.891Z,100858.88
2023-04-15T12:34:39.215Z,100861.53
2023-04-15T12:37:08.043Z,100857.06
2023-04-15T12:39:36.763Z,100860.84
2023-04-15T12:42:05.454Z,100870.41
2023-04-15T12:44:33.393Z,100871.63
2023-04-15T12:47:00.567Z,100875.94
2023-04-15T12:49:27.863Z,100881.78
2023-04-15T12:51:56.920Z,100875.94
2023-04-15T12:54:24.122Z,100882.47
2023-04-15T12:56:51.363Z,100891.97
2023-04-15T12:59:18.900Z,100888.56
2023-04-15T13:01:46.794Z,100887.91
2023-04-15T13:04:13.666Z,100892.38
2023-04-15T13:06:40.663Z,100905.50
2023-04-15T13:09:07.555Z,100908.19
2023-04-15T13:11:34.419Z,100911.31
2023-04-15T13:14:02.455Z,100906.28
2023-04-15T13:16:29.842Z,100917.19
2023-04-15T13:18:56.643Z,100915.97
2023-04-15T13:21:23.450Z,100922.44
2023-04-15T13:23:51.434Z,100925.09
2023-04-15T13:26:18.610Z,100924.88
2023-04-15T13:28:45.977Z,100933.16
2023-04-15T13:31:13.046Z,100934.03
2023-04-15T13:33:39.723Z,100925.75
2023-04-15T13:36:07.007Z,100938.69
2023-04-15T13:38:33.807Z,100945.22
2023-04-15T13:41:00.521Z,100935.53
2023-04-15T13:43:27.237Z,100946.19
2023-04-15T13:45:54.361Z,100947.97
2023-04-15T13:48:21.258Z,100950.84
2023-04-15T13:50:48.150Z,100958.88
2023-04-15T13:53:17.349Z,100959.09
2023-04-15T13:55:44.160Z,100966.69
2023-04-15T13:58:11.606Z,100964.72
2023-04-15T14:00:38.370Z,100970.28
2023-04-15T14:03:05.544Z,100967.47
2023-04-15T14:05:33.136Z,100972.25
2023-04-15T14:08:00.648Z,100980.06
2023-04-15T14:10:27.389Z,100982.84
2023-04-15T14:12:54.248Z,100973.53
2023-04-15T14:15:27.037Z,100980.19
2023-04-15T14:17:53.794Z,100981.03
2023-04-15T14:20:20.496Z,100986.63
2023-04-15T14:22:47.197Z,100994.34
2023-04-15T14:25:20.143Z,100998.59
2023-04-15T14:27:57.414Z,101001.47
2023-04-15T14:30:24.148Z,100998.22
2023-04-15T14:32:50.859Z,101007.88
2023-04-15T14:35:20.011Z,101007.72
2023-04-15T14:37:49.573Z,101007.44
2023-04-15T14:40:16.375Z,101004.56
2023-04-15T14:42:43.205Z,101003.91
2023-04-15T14:45:10.809Z,101008.50
2023-04-15T14:47:37.557Z,101015.97
2023-04-15T14:50:06.426Z,101012.88
2023-04-15T14:52:38.765Z,101015.88
2023-04-15T14:55:07.529Z,101025.66
2023-04-15T14:57:34.385Z,101029.69
2023-04-15T15:00:01.170Z,101037.69
2023-04-15T15:02:38.384Z,101042.72
2023-04-15T15:05:07.039Z,101040.88
2023-04-15T15:07:35.404Z,101039.31
2023-04-15T15:10:03.600Z,101043.09
2023-04-15T15:12:35.452Z,101045.81
2023-04-15T15:15:09.236Z,101054.59
2023-04-15T15:17:39.409Z,101053.72
2023-04-15T15:20:06.799Z,101053.34
2023-04-15T15:22:33.514Z,101060.84
2023-04-15T15:25:02.274Z,101059.13
2023-04-15T15:27:29.152Z,101060.44
2023-04-15T15:29:56.795Z,101066.41
2023-04-15T15:32:23.478Z,101071.50
2023-04-15T15:34:50.243Z,101070.66
2023-04-15T15:37:16.964Z,101070.38
2023-04-15T15:39:43.657Z,101076.47
2023-04-15T15:42:10.337Z,101074.25
2023-04-15T15:44:38.629Z,101075.38
2023-04-15T15:47:09.703Z,101078.41
2023-04-15T15:49:36.385Z,101079.25
2023-04-15T15:52:03.138Z,101077.34
2023-04-15T15:54:30.030Z,101089.22
2023-04-15T15:56:57.705Z,101094.41
2023-04-15T15:59:25.731Z,101089.44
2023-04-15T16:01:53.023Z,101095.19
2023-04-15T16:04:20.038Z,101098.78
2023-04-15T16:06:47.528Z,101098.97
2023-04-15T16:09:14.357Z,101108.53
2023-04-15T16:11:41.788Z,101110.06
2023-04-15T16:14:08.458Z,101114.69
2023-04-15T16:16:35.392Z,101122.38
2023-04-15T16:19:02.265Z,101114.38
2023-04-15T16:21:29.138Z,101118.28
2023-04-15T16:23:56.043Z,101114.31
2023-04-15T16:26:23.589Z,101124.25
2023-04-15T16:28:50.271Z,101122.84
2023-04-15T16:31:16.932Z,101124.09
2023-04-15T16:33:43.706Z,101135.41
2023-04-15T16:36:10.653Z,101134.78
2023-04-15T16:38:45.477Z,101137.84
2023-04-15T16:41:12.173Z,101137.44
2023-04-15T16:43:38.921Z,101147.25
2023-04-15T16:46:05.731Z,101151.25
2023-04-15T16:48:32.438Z,101154.75
2023-04-15T16:50:59.223Z,101146.34
2023-04-15T16:53:26.112Z,101152.81
2023-04-15T16:55:52.835Z,101165.22
2023-04-15T16:58:19.554Z,101156.13
2023-04-15T17:00:46.338Z,101167.28
2023-04-15T17:03:13.203Z,101169.91
2023-04-15T17:05:40.301Z,101166.81
2023-04-15T17:08:07.049Z,101172.34
2023-04-15T17:10:33.837Z,101172.41
2023-04-15T17:13:01.052Z,101176.25
2023-04-15T17:15:28.052Z,101174.03
2023-04-15T17:17:54.916Z,101177.66
2023-04-15T17:20:21.982Z,101187.28
2023-04-15T17:22:48.969Z,101187.59
2023-04-15T17:25:16.201Z,101189.09
2023-04-15T17:27:43.017Z,101181.00
2023-04-15T17:30:10.322Z,101194.03
2023-04-15T17:32:37.469Z,101192.94
2023-04-15T17:35:06.254Z,101187.09
2023-04-15T17:37:33.992Z,101191.06
2023-04-15T17:40:00.861Z,101193.03
2023-04-15T17:42:27.609Z,101200.81
2023-04-15T17:44:54.353Z,101204.94
2023-04-15T17:47:21.724Z,101209.56
2023-04-15T17:49:48.419Z,101213.31
2023-04-15T17:52:15.373Z,101215.47
2023-04-15T17:54:42.142Z,101225.41
2023-04-15T17:57:09.873Z,101220.53
2023-04-15T17:59:36.714Z,101238.97
2023-04-15T18:02:03.574Z,101228.09
2023-04-15T18:04:30.714Z,101233.09
2023-04-15T18:06:57.545Z,101243.91
2023-04-15T18:09:24.502Z,101246.22
2023-04-15T18:11:51.455Z,101244.28
2023-04-15T18:14:32.938Z,101241.78
2023-04-15T18:17:01.199Z,101254.91
2023-04-15T18:19:27.975Z,101255.94
2023-04-15T18:21:54.713Z,101255.94
2023-04-15T18:24:22.159Z,101255.66
2023-04-15T18:26:49.260Z,101261.13
2023-04-15T18:29:16.375Z,101259.00
2023-04-15T18:31:43.376Z,101260.84
2023-04-15T18:34:10.356Z,101262.06
2023-04-15T18:36:37.153Z,101273.59
2023-04-15T18:39:04.786Z,101277.44
2023-04-15T18:41:31.913Z,101282.47
2023-04-15T18:43:58.622Z,101287.28
2023-04-15T18:46:25.502Z,101297.72
2023-04-15T18:48:52.207Z,101300.25
2023-04-15T18:51:18.966Z,101292.59
2023-04-15T18:53:45.820Z,101295.53
2023-04-15T18:56:12.573Z,101301.16
2023-04-15T18:59:26.088Z,101294.66
2023-04-15T19:01:26.568Z,101314.91
2023-04-15T19:03:53.386Z,101310.75
2023-04-15T19:06:20.206Z,101325.31
2023-04-15T19:08:46.880Z,101327.59
2023-04-15T19:11:14.076Z,101327.50
2023-04-15T19:13:40.963Z,101340.28
2023-04-15T19:16:07.768Z,101333.84
2023-04-15T19:18:34.801Z,101328.84
2023-04-15T19:21:01.548Z,101337.63
2023-04-15T19:23:28.248Z,101341.94
2023-04-15T19:25:55.052Z,101351.78
2023-04-15T19:28:21.870Z,101366.22
2023-04-15T19:30:48.717Z,101361.19
2023-04-15T19:33:15.557Z,101362.44
2023-04-15T19:35:43.926Z,101365.44
2023-04-15T19:38:10.708Z,101368.47
2023-04-15T19:40:37.673Z,101369.41
2023-04-15T19:43:04.372Z,101368.16
2023-04-15T19:45:32.034Z,101370.88
2023-04-15T19:47:58.914Z,101363.31
2023-04-15T19:50:28.014Z,101378.06
2023-04-15T19:52:54.717Z,101384.94
2023-04-15T19:55:21.553Z,101376.94
2023-04-15T19:57:48.462Z,101374.44
2023-04-15T20:00:16.965Z,101375.31
2023-04-15T20:02:43.989Z,101384.78
2023-04-15T20:05:10.967Z,101387.44
2023-04-15T20:07:37.701Z,101382.72
2023-04-15T20:10:09.641Z,101387.81
2023-04-15T20:12:50.299Z,101386.53
2023-04-15T20:15:20.871Z,101397.34
2023-04-15T20:17:47.596Z,101393.84
2023-04-15T20:20:14.434Z,101395.28
2023-04-15T20:22:41.660Z,101410.03
2023-04-15T20:25:08.792Z,101397.66
2023-04-15T20:27:35.666Z,101395.63
2023-04-15T20:30:05.122Z,101400.81
2023-04-15T20:32:36.234Z,101395.88
2023-04-15T20:35:04.454Z,101392.06
2023-04-15T20:37:33.812Z,101391.19
2023-04-15T20:40:00.977Z,101392.19
2023-04-15T20:42:27.718Z,101394.03
2023-04-15T20:44:55.031Z,101396.59
2023-04-15T20:47:21.827Z,101404.34
2023-04-15T20:49:48.691Z,101405.56
2023-04-15T20:52:15.598Z,101409.94
2023-04-15T20:54:42.342Z,101402.72
2023-04-15T20:57:09.440Z,101414.81
2023-04-15T20:59:36.322Z,101414.78
2023-04-15T21:02:03.434Z,101411.31
2023-04-15T21:04:30.279Z,101412.63
2023-04-15T21:06:57.048Z,101405.69
2023-04-15T21:09:25.153Z,101410.84
2023-04-15T21:14:21.473Z,101403.56
2023-04-15T21:16:48.301Z,101415.03
2023-04-15T21:19:15.129Z,101409.59
2023-04-15T21:21:41.839Z,101403.09
2023-04-15T21:24:08.606Z,101411.50
2023-04-15T21:26:36.424Z,101415.69
2023-04-15T21:29:03.794Z,101422.38
2023-04-15T21:31:31.235Z,101423.94
2023-04-15T21:33:57.974Z,101428.03
2023-04-15T21:36:24.853Z,101431.22
2023-04-15T21:38:52.138Z,101432.59
2023-04-15T21:41:19.543Z,101441.50
2023-04-15T21:43:46.659Z,101435.81
2023-04-15T21:46:23.503Z,101438.44
2023-04-15T21:48:53.420Z,101444.06
2023-04-15T21:51:20.345Z,101451.22
2023-04-15T21:53:47.281Z,101446.66
2023-04-15T21:56:14.651Z,101460.56
2023-04-15T21:58:41.503Z,101465.53
2023-04-15T22:01:08.788Z,101459.78
2023-04-15T22:03:35.945Z,101474.94
2023-04-15T22:06:03.542Z,101462.59
2023-04-15T22:08:38.274Z,101463.88
2023-04-15T22:11:09.399Z,101454.41
2023-04-15T22:13:36.695Z,101457.28
2023-04-15T22:16:03.890Z,101464.81
2023-04-15T22:18:30.804Z,101463.56
2023-04-15T22:20:57.586Z,101467.06
2023-04-15T22:23:24.474Z,101472.56
2023-04-15T22:25:51.599Z,101469.06
2023-04-15T22:28:18.651Z,101467.22
2023-04-15T22:30:45.755Z,101467.22
2023-04-15T22:33:12.487Z,101475.72
2023-04-15T22:35:39.388Z,101473.31
2023-04-15T22:38:06.504Z,101487.19
2023-04-15T22:40:33.431Z,101483.31
2023-04-15T22:43:00.167Z,101484.28
2023-04-15T22:45:26.857Z,101489.00
2023-04-15T22:47:53.685Z,101489.38
2023-04-15T22:50:20.423Z,101496.19
2023-04-15T22:52:48.389Z,101492.03
2023-04-15T22:55:15.323Z,101497.38
2023-04-15T22:57:42.075Z,101494.06
2023-04-15T23:00:09.477Z,101492.88
2023-04-15T23:02:36.326Z,101502.44
2023-04-15T23:05:03.191Z,101506.56
2023-04-15T23:07:37.904Z,101503.06
2023-04-15T23:10:04.893Z,101502.69
2023-04-15T23:12:31.846Z,101502.44
2023-04-15T23:14:58.518Z,101502.66
2023-04-15T23:17:25.311Z,101509.06
2023-04-15T23:19:52.150Z,101526.44
2023-04-15T23:22:18.998Z,101510.00
2023-04-15T23:24:46.026Z,101517.69
2023-04-15T23:27:13.139Z,101518.31
2023-04-15T23:29:39.839Z,101513.53
2023-04-15T23:32:06.928Z,101519.09
2023-04-15T23:34:33.655Z,101521.22
2023-04-15T23:37:00.371Z,101525.66
2023-04-15T23:39:27.136Z,101520.06
2023-04-15T23:41:53.959Z,101528.47
2023-04-15T23:44:20.704Z,101520.72
2023-04-15T23:46:47.618Z,101517.75
2023-04-15T23:49:14.514Z,101519.97
2023-04-15T23:51:41.472Z,101526.94
2023-04-15T23:54:08.188Z,101520.16
2023-04-15T23:56:34.875Z,101519.91
2023-04-15T23:59:01.579Z,101526.13
